createdAt,value
2023-03-30T00:01:56.806Z,12.25
2023-03-30T00:04:28.917Z,12.27
2023-03-30T00:06:55.477Z,12.29
2023-03-30T00:09:23.364Z,12.30
2023-03-30T00:11:53.427Z,12.31
2023-03-30T00:14:22.798Z,12.36
2023-03-30T00:16:56.818Z,12.34
2023-03-30T00:19:23.321Z,12.34
2023-03-30T00:21:53.853Z,12.36
2023-03-30T00:24:20.326Z,12.37
2023-03-30T00:26:46.780Z,12.37
2023-03-30T00:29:18.244Z,12.41
2023-03-30T00:31:44.705Z,12.44
2023-03-30T00:34:11.112Z,12.49
2023-03-30T00:36:40.767Z,12.50
2023-03-30T00:39:10.150Z,12.50
2023-03-30T00:41:37.140Z,12.52
2023-03-30T00:44:07.017Z,12.55
2023-03-30T00:46:33.949Z,12.55
2023-03-30T00:49:08.236Z,12.57
2023-03-30T00:51:41.672Z,12.61
2023-03-30T00:54:17.358Z,12.62
2023-03-30T00:56:43.957Z,12.62
2023-03-30T00:59:10.767Z,12.62
2023-03-30T01:01:42.261Z,12.62
2023-03-30T01:04:12.520Z,12.62
2023-03-30T01:06:47.050Z,12.65
2023-03-30T01:09:20.430Z,12.64
2023-03-30T01:11:49.929Z,12.77
2023-03-30T01:14:22.834Z,12.82
2023-03-30T01:17:05.305Z,12.87
2023-03-30T01:20:13.012Z,12.86
2023-03-30T01:22:47.877Z,12.85
2023-03-30T01:25:38.362Z,12.82
2023-03-30T01:28:18.798Z,12.81
2023-03-30T01:31:25.819Z,12.80
2023-03-30T01:34:04.918Z,12.73
2023-03-30T01:37:13.104Z,12.68
2023-03-30T01:39:58.131Z,12.58
2023-03-30T01:45:51.363Z,12.42
2023-03-30T01:48:38.525Z,12.34
2023-03-30T01:51:12.122Z,12.29
2023-03-30T01:54:05.552Z,12.20
2023-03-30T01:56:56.266Z,12.12
2023-03-30T01:59:33.666Z,12.07
2023-03-30T02:02:09.264Z,12.05
2023-03-30T02:04:41.923Z,12.05
2023-03-30T02:07:27.738Z,12.02
2023-03-30T02:10:01.830Z,12.01
2023-03-30T02:12:32.925Z,11.98
2023-03-30T02:15:07.493Z,11.99
2023-03-30T02:17:38.562Z,11.93
2023-03-30T02:20:12.306Z,11.88
2023-03-30T02:22:41.986Z,11.84
2023-03-30T02:25:12.164Z,11.79
2023-03-30T02:30:35.856Z,11.80
2023-03-30T02:33:09.005Z,11.88
2023-03-30T02:35:57.400Z,11.99
2023-03-30T02:38:53.324Z,12.08
2023-03-30T02:41:59.295Z,12.26
2023-03-30T02:44:55.331Z,12.34
2023-03-30T02:47:43.635Z,12.40
2023-03-30T02:50:24.344Z,12.42
2023-03-30T02:53:12.145Z,12.48
2023-03-30T02:56:06.806Z,12.51
2023-03-30T02:58:42.522Z,12.55
2023-03-30T03:01:16.088Z,12.61
2023-03-30T03:03:55.007Z,12.63
2023-03-30T03:06:27.344Z,12.67
2023-03-30T03:08:57.109Z,12.72
2023-03-30T03:11:29.172Z,12.74
2023-03-30T03:13:59.312Z,12.72
2023-03-30T03:16:33.228Z,12.73
2023-03-30T03:19:03.474Z,12.77
2023-03-30T03:21:42.353Z,12.78
2023-03-30T03:24:08.931Z,12.77
2023-03-30T03:29:25.267Z,12.73
2023-03-30T03:31:51.966Z,12.76
2023-03-30T03:34:22.489Z,12.78
2023-03-30T03:36:54.792Z,12.77
2023-03-30T03:39:26.695Z,12.79
2023-03-30T03:41:56.227Z,12.78
2023-03-30T03:44:22.617Z,12.77
2023-03-30T03:46:51.872Z,12.75
2023-03-30T03:49:18.312Z,12.74
2023-03-30T03:51:44.738Z,12.74
2023-03-30T03:54:13.943Z,12.73
2023-03-30T03:56:43.194Z,12.76
2023-03-30T03:59:10.518Z,12.74
2023-03-30T04:01:40.682Z,12.75
2023-03-30T04:04:11.619Z,12.76
2023-03-30T04:06:48.287Z,12.75
2023-03-30T04:09:14.634Z,12.76
2023-03-30T04:11:49.610Z,12.78
2023-03-30T04:14:15.998Z,12.79
2023-03-30T04:16:45.841Z,12.81
2023-03-30T04:19:15.944Z,12.88
2023-03-30T04:21:47.022Z,12.92
2023-03-30T04:24:16.456Z,12.91
2023-03-30T04:26:48.790Z,12.91
2023-03-30T04:29:21.151Z,12.93
2023-03-30T04:31:47.626Z,12.92
2023-03-30T04:34:16.576Z,12.91
2023-03-30T04:36:45.759Z,12.90
2023-03-30T04:39:15.994Z,12.88
2023-03-30T04:41:47.383Z,12.88
2023-03-30T04:44:13.888Z,12.86
2023-03-30T04:46:44.315Z,12.85
2023-03-30T04:49:13.460Z,12.84
2023-03-30T04:51:48.461Z,12.80
2023-03-30T04:54:14.813Z,12.79
2023-03-30T04:56:41.590Z,12.73
2023-03-30T04:59:13.938Z,12.67
2023-03-30T05:01:45.371Z,12.63
2023-03-30T05:04:14.927Z,12.54
2023-03-30T05:06:44.179Z,12.48
2023-03-30T05:09:18.514Z,12.44
2023-03-30T05:11:44.930Z,12.43
2023-03-30T05:14:11.310Z,12.39
2023-03-30T05:16:51.001Z,12.35
2023-03-30T05:22:03.505Z,12.21
2023-03-30T05:24:33.213Z,12.18
2023-03-30T05:26:59.569Z,12.15
2023-03-30T05:29:29.299Z,12.13
2023-03-30T05:31:58.784Z,12.07
2023-03-30T05:34:30.315Z,12.00
2023-03-30T05:36:59.874Z,11.94
2023-03-30T05:39:26.542Z,11.91
2023-03-30T05:41:56.258Z,11.88
2023-03-30T05:44:25.862Z,11.85
2023-03-30T05:46:56.852Z,11.83
2023-03-30T05:49:25.407Z,11.89
2023-03-30T05:51:52.134Z,12.04
2023-03-30T05:54:29.821Z,12.02
2023-03-30T05:56:56.290Z,12.04
2023-03-30T05:59:26.156Z,12.00
2023-03-30T06:01:56.071Z,12.08
2023-03-30T06:04:24.832Z,12.31
2023-03-30T06:06:55.615Z,12.69
2023-03-30T06:09:24.054Z,12.50
2023-03-30T06:11:53.589Z,12.35
2023-03-30T06:14:22.737Z,12.21
2023-03-30T06:16:49.355Z,12.19
2023-03-30T06:19:18.848Z,12.40
2023-03-30T06:21:45.236Z,12.21
2023-03-30T06:24:11.619Z,12.20
2023-03-30T06:26:41.075Z,12.19
2023-03-30T06:29:10.559Z,12.17
2023-03-30T06:31:36.960Z,12.25
2023-03-30T06:34:04.017Z,12.26
2023-03-30T06:36:45.249Z,12.33
2023-03-30T06:39:15.474Z,12.50
2023-03-30T06:41:41.871Z,12.62
2023-03-30T06:44:12.748Z,12.58
2023-03-30T06:46:39.299Z,12.55
2023-03-30T06:49:05.647Z,12.70
2023-03-30T06:51:37.169Z,12.76
2023-03-30T06:54:03.982Z,12.81
2023-03-30T06:56:30.493Z,12.81
2023-03-30T06:59:07.106Z,12.82
2023-03-30T07:01:33.559Z,12.89
2023-03-30T07:03:59.967Z,12.88
2023-03-30T07:06:26.421Z,12.87
2023-03-30T07:08:53.660Z,12.86
2023-03-30T07:11:20.092Z,12.89
2023-03-30T07:13:49.958Z,12.88
2023-03-30T07:16:16.400Z,12.84
2023-03-30T07:18:42.753Z,12.81
2023-03-30T07:21:14.965Z,12.77
2023-03-30T07:23:43.319Z,12.75
2023-03-30T07:26:09.807Z,12.78
2023-03-30T07:28:44.910Z,12.82
2023-03-30T07:31:19.719Z,12.88
2023-03-30T07:33:49.200Z,12.85
2023-03-30T07:36:18.141Z,12.94
2023-03-30T07:38:52.940Z,13.04
2023-03-30T07:44:07.850Z,13.01
2023-03-30T07:46:34.344Z,13.13
2023-03-30T07:49:00.720Z,13.08
2023-03-30T07:51:30.131Z,13.19
2023-03-30T07:54:00.247Z,13.37
2023-03-30T07:56:29.116Z,13.39
2023-03-30T07:58:55.724Z,13.40
2023-03-30T08:01:22.120Z,13.45
2023-03-30T08:03:49.183Z,13.33
2023-03-30T08:06:25.837Z,13.32
2023-03-30T08:08:52.442Z,13.45
2023-03-30T08:11:19.306Z,13.42
2023-03-30T08:13:48.466Z,13.28
2023-03-30T08:16:14.960Z,13.22
2023-03-30T08:18:41.736Z,13.25
2023-03-30T08:21:14.393Z,13.16
2023-03-30T08:23:40.818Z,13.11
2023-03-30T08:26:10.419Z,13.05
2023-03-30T08:28:39.874Z,13.11
2023-03-30T08:31:09.583Z,13.26
2023-03-30T08:33:44.057Z,13.35
2023-03-30T08:36:16.334Z,13.38
2023-03-30T08:38:46.357Z,13.33
2023-03-30T08:41:39.850Z,13.36
2023-03-30T08:44:09.251Z,13.26
2023-03-30T08:46:40.281Z,13.25
2023-03-30T08:49:14.400Z,13.16
2023-03-30T08:51:46.585Z,13.16
2023-03-30T08:54:17.517Z,13.17
2023-03-30T08:57:09.325Z,13.16
2023-03-30T09:00:00.561Z,13.19
2023-03-30T09:02:58.741Z,13.25
2023-03-30T09:05:39.597Z,13.25
2023-03-30T09:08:24.130Z,13.36
2023-03-30T09:11:07.101Z,13.50
2023-03-30T09:13:48.542Z,13.57
2023-03-30T09:16:48.874Z,13.68
2023-03-30T09:19:27.268Z,13.77
2023-03-30T09:21:54.046Z,13.85
2023-03-30T09:24:30.819Z,13.80
2023-03-30T09:27:17.003Z,14.16
2023-03-30T09:29:55.769Z,14.36
2023-03-30T09:32:46.199Z,14.37
2023-03-30T09:35:31.440Z,14.38
2023-03-30T09:37:58.108Z,14.58
2023-03-30T09:43:43.937Z,14.61
2023-03-30T09:46:11.487Z,14.49
2023-03-30T09:48:49.835Z,14.67
2023-03-30T09:51:20.032Z,14.64
2023-03-30T09:53:52.716Z,14.62
2023-03-30T09:56:34.238Z,14.52
2023-03-30T09:59:36.249Z,14.52
2023-03-30T10:02:17.931Z,14.49
2023-03-30T10:04:53.836Z,14.76
2023-03-30T10:07:30.170Z,14.77
2023-03-30T10:09:59.553Z,14.80
2023-03-30T10:12:31.097Z,14.98
2023-03-30T10:15:04.229Z,14.96
2023-03-30T10:20:23.431Z,15.47
2023-03-30T10:23:17.431Z,15.37
2023-03-30T10:25:50.070Z,15.33
2023-03-30T10:28:27.790Z,15.38
2023-03-30T10:31:01.240Z,15.22
2023-03-30T10:33:31.766Z,15.41
2023-03-30T10:36:03.348Z,15.39
2023-03-30T10:38:34.342Z,15.01
2023-03-30T10:41:08.461Z,14.96
2023-03-30T10:43:38.344Z,15.25
2023-03-30T10:46:22.842Z,15.49
2023-03-30T10:48:59.010Z,15.38
2023-03-30T10:51:55.502Z,15.40
2023-03-30T10:55:04.168Z,15.13
2023-03-30T10:58:24.745Z,15.04
2023-03-30T11:01:32.274Z,15.12
2023-03-30T11:04:42.433Z,15.22
2023-03-30T11:07:29.647Z,15.49
2023-03-30T11:10:16.025Z,15.79
2023-03-30T11:13:07.257Z,15.80
2023-03-30T11:15:55.426Z,15.49
2023-03-30T11:18:56.068Z,15.42
2023-03-30T11:22:02.487Z,16.02
2023-03-30T11:24:34.104Z,16.13
2023-03-30T11:27:19.603Z,15.84
2023-03-30T11:30:07.810Z,15.65
2023-03-30T11:32:44.129Z,15.47
2023-03-30T11:35:49.240Z,15.30
2023-03-30T11:38:51.898Z,15.27
2023-03-30T11:41:44.510Z,15.27
2023-03-30T11:44:11.827Z,15.43
2023-03-30T11:47:32.348Z,15.46
2023-03-30T11:50:45.295Z,15.32
2023-03-30T11:53:31.835Z,15.26
2023-03-30T11:56:11.239Z,15.17
2023-03-30T11:59:00.132Z,15.03
2023-03-30T12:01:45.481Z,14.95
2023-03-30T12:04:25.992Z,15.01
2023-03-30T12:07:03.293Z,15.01
2023-03-30T12:09:50.621Z,14.97
2023-03-30T12:12:32.616Z,15.11
2023-03-30T12:15:47.168Z,15.13
2023-03-30T12:18:35.695Z,15.10
2023-03-30T12:21:48.921Z,15.04
2023-03-30T12:24:28.071Z,15.07
2023-03-30T12:27:05.474Z,15.03
2023-03-30T12:30:03.143Z,15.21
2023-03-30T12:32:37.020Z,15.19
2023-03-30T12:35:42.125Z,15.24
2023-03-30T12:38:09.090Z,15.42
2023-03-30T12:40:46.277Z,15.45
2023-03-30T12:43:53.952Z,15.53
2023-03-30T12:46:31.079Z,15.61
2023-03-30T12:49:17.182Z,15.49
2023-03-30T12:52:10.595Z,15.53
2023-03-30T12:55:11.334Z,15.59
2023-03-30T13:01:20.660Z,15.69
2023-03-30T13:03:55.792Z,15.65
2023-03-30T13:06:32.114Z,15.43
2023-03-30T13:09:20.240Z,15.24
2023-03-30T13:12:24.691Z,15.10
2023-03-30T13:15:26.094Z,14.79
2023-03-30T13:20:47.686Z,14.54
2023-03-30T13:23:17.758Z,14.64
2023-03-30T13:25:54.319Z,14.63
2023-03-30T13:28:56.514Z,14.72
2023-03-30T13:31:25.943Z,14.78
2023-03-30T13:34:23.700Z,14.99
2023-03-30T13:37:29.408Z,15.39
2023-03-30T13:40:11.038Z,15.43
2023-03-30T13:43:17.333Z,15.59
2023-03-30T13:46:13.282Z,15.49
2023-03-30T13:49:02.014Z,15.94
2023-03-30T13:51:30.139Z,16.29
2023-03-30T13:54:20.774Z,15.89
2023-03-30T13:57:01.407Z,16.00
2023-03-30T13:59:32.959Z,15.96
2023-03-30T14:02:03.931Z,16.23
2023-03-30T14:07:33.627Z,16.17
2023-03-30T14:10:07.534Z,16.34
2023-03-30T14:12:39.570Z,16.28
2023-03-30T14:15:16.726Z,16.19
2023-03-30T14:17:50.384Z,16.16
2023-03-30T14:21:05.308Z,16.38
2023-03-30T14:23:41.692Z,16.53
2023-03-30T14:26:28.450Z,16.30
2023-03-30T14:29:11.028Z,16.30
2023-03-30T14:32:00.489Z,16.33
2023-03-30T14:34:33.726Z,16.15
2023-03-30T14:37:04.220Z,15.89
2023-03-30T14:39:32.840Z,15.84
2023-03-30T14:42:25.882Z,15.90
2023-03-30T14:44:57.670Z,16.03
2023-03-30T14:47:38.740Z,16.23
2023-03-30T14:50:09.308Z,15.97
2023-03-30T14:52:42.077Z,15.79
2023-03-30T14:55:17.626Z,15.86
2023-03-30T14:57:46.653Z,15.71
2023-03-30T15:00:24.623Z,15.71
2023-03-30T15:02:57.877Z,15.79
2023-03-30T15:05:40.532Z,15.74
2023-03-30T15:08:16.605Z,15.69
2023-03-30T15:11:14.059Z,15.82
2023-03-30T15:13:45.781Z,15.67
2023-03-30T15:16:27.333Z,15.62
2023-03-30T15:19:21.023Z,15.65
2023-03-30T15:22:13.950Z,15.52
2023-03-30T15:24:41.567Z,15.56
2023-03-30T15:27:31.846Z,15.52
2023-03-30T15:30:02.071Z,15.46
2023-03-30T15:32:43.490Z,15.54
2023-03-30T15:35:24.381Z,15.44
2023-03-30T15:38:10.778Z,15.34
2023-03-30T15:40:40.706Z,15.45
2023-03-30T15:43:30.962Z,15.34
2023-03-30T15:46:16.081Z,15.49
2023-03-30T15:48:51.402Z,15.57
2023-03-30T15:51:30.536Z,15.45
2023-03-30T15:54:13.722Z,15.54
2023-03-30T15:57:19.690Z,15.53
2023-03-30T16:00:12.635Z,15.47
2023-03-30T16:02:41.862Z,15.44
2023-03-30T16:05:24.092Z,15.25
2023-03-30T16:07:56.636Z,15.24
2023-03-30T16:10:27.163Z,15.36
2023-03-30T16:12:58.163Z,15.28
2023-03-30T16:15:30.427Z,15.23
2023-03-30T16:18:02.973Z,15.11
2023-03-30T16:20:33.649Z,15.03
2023-03-30T16:23:00.428Z,14.99
2023-03-30T16:25:44.292Z,14.92
2023-03-30T16:28:17.012Z,14.93
2023-03-30T16:30:49.418Z,14.91
2023-03-30T16:33:16.040Z,14.86
2023-03-30T16:35:43.169Z,14.83
2023-03-30T16:38:19.149Z,14.84
2023-03-30T16:40:54.244Z,14.73
2023-03-30T16:43:24.186Z,14.59
2023-03-30T16:45:56.520Z,14.47
2023-03-30T16:48:26.963Z,14.36
2023-03-30T16:53:42.445Z,14.29
2023-03-30T16:59:04.406Z,14.23
2023-03-30T17:01:33.608Z,14.25
2023-03-30T17:04:01.464Z,14.21
2023-03-30T17:06:33.623Z,14.14
2023-03-30T17:08:59.973Z,14.10
2023-03-30T17:11:26.836Z,14.04
2023-03-30T17:13:54.087Z,14.03
2023-03-30T17:16:21.720Z,14.02
2023-03-30T17:18:48.193Z,14.00
2023-03-30T17:21:16.803Z,13.97
2023-03-30T17:23:47.629Z,13.88
2023-03-30T17:26:15.956Z,13.82
2023-03-30T17:28:43.035Z,13.75
2023-03-30T17:31:23.691Z,13.68
2023-03-30T17:33:50.240Z,13.61
2023-03-30T17:36:21.917Z,13.51
2023-03-30T17:38:51.848Z,13.45
2023-03-30T17:41:19.674Z,13.39
2023-03-30T17:43:50.389Z,13.33
2023-03-30T17:46:20.207Z,13.25
2023-03-30T17:48:48.822Z,13.19
2023-03-30T17:51:15.428Z,13.15
2023-03-30T17:53:42.685Z,13.08
2023-03-30T17:59:08.504Z,12.97
2023-03-30T18:01:39.195Z,12.92
2023-03-30T18:04:09.219Z,12.87
2023-03-30T18:06:36.042Z,12.85
2023-03-30T18:09:06.225Z,12.80
2023-03-30T18:11:32.702Z,12.77
2023-03-30T18:13:59.113Z,12.71
2023-03-30T18:16:27.072Z,12.66
2023-03-30T18:18:57.911Z,12.61
2023-03-30T18:21:27.539Z,12.57
2023-03-30T18:23:54.034Z,12.52
2023-03-30T18:26:21.191Z,12.44
2023-03-30T18:28:47.610Z,12.43
2023-03-30T18:31:23.115Z,12.40
2023-03-30T18:33:51.704Z,12.37
2023-03-30T18:36:26.503Z,12.33
2023-03-30T18:38:57.007Z,12.33
2023-03-30T18:41:29.197Z,12.31
2023-03-30T18:43:55.708Z,12.27
2023-03-30T18:46:25.828Z,12.23
2023-03-30T18:48:55.252Z,12.19
2023-03-30T18:51:29.500Z,12.15
2023-03-30T18:53:56.869Z,12.15
2023-03-30T18:56:23.382Z,12.11
2023-03-30T18:58:52.889Z,12.06
2023-03-30T19:01:22.051Z,12.05
2023-03-30T19:03:56.784Z,12.03
2023-03-30T19:06:23.198Z,12.01
2023-03-30T19:08:49.697Z,11.98
2023-03-30T19:11:21.758Z,11.94
2023-03-30T19:13:48.231Z,11.91
2023-03-30T19:16:18.739Z,11.87
2023-03-30T19:18:46.118Z,11.83
2023-03-30T19:21:17.160Z,11.82
2023-03-30T19:23:44.469Z,11.78
2023-03-30T19:26:15.122Z,11.76
2023-03-30T19:28:41.509Z,11.73
2023-03-30T19:31:18.944Z,11.71
2023-03-30T19:33:45.532Z,11.66
2023-03-30T19:36:15.516Z,11.63
2023-03-30T19:38:43.873Z,11.61
2023-03-30T19:41:18.216Z,11.60
2023-03-30T19:43:45.540Z,11.56
2023-03-30T19:46:11.948Z,11.55
2023-03-30T19:48:47.555Z,11.54
2023-03-30T19:51:13.977Z,11.48
2023-03-30T19:53:49.573Z,11.43
2023-03-30T19:56:16.529Z,11.38
2023-03-30T19:58:48.924Z,11.37
2023-03-30T20:01:15.267Z,11.38
2023-03-30T20:03:41.730Z,11.39
2023-03-30T20:06:17.972Z,11.39
2023-03-30T20:08:44.519Z,11.38
2023-03-30T20:11:15.006Z,11.34
2023-03-30T20:13:45.994Z,11.30
2023-03-30T20:16:22.413Z,11.29
2023-03-30T20:18:51.270Z,11.23
2023-03-30T20:21:24.945Z,11.20
2023-03-30T20:23:51.288Z,11.15
2023-03-30T20:26:24.820Z,11.14
2023-03-30T20:28:51.338Z,11.12
2023-03-30T20:31:20.641Z,11.06
2023-03-30T20:33:53.537Z,11.04
2023-03-30T20:36:24.099Z,11.02
2023-03-30T20:39:01.058Z,10.98
2023-03-30T20:41:39.923Z,10.94
2023-03-30T20:44:13.857Z,10.91
2023-03-30T20:46:43.535Z,10.88
2023-03-30T20:52:17.652Z,10.84
2023-03-30T20:54:46.774Z,10.82
2023-03-30T20:57:13.115Z,10.82
2023-03-30T20:59:42.705Z,10.83
2023-03-30T21:02:11.587Z,10.81
2023-03-30T21:04:44.896Z,10.79
2023-03-30T21:07:16.270Z,10.78
2023-03-30T21:09:48.205Z,10.77
2023-03-30T21:12:17.351Z,10.76
2023-03-30T21:14:48.959Z,10.78
2023-03-30T21:17:18.356Z,10.79
2023-03-30T21:19:44.771Z,10.80
2023-03-30T21:22:16.358Z,10.85
2023-03-30T21:24:42.870Z,10.88
2023-03-30T21:27:09.214Z,10.85
2023-03-30T21:29:38.263Z,10.78
2023-03-30T21:32:07.637Z,10.75
2023-03-30T21:34:33.980Z,10.73
2023-03-30T21:37:04.384Z,10.71
2023-03-30T21:39:30.750Z,10.68
2023-03-30T21:41:57.231Z,10.69
2023-03-30T21:44:26.579Z,10.66
2023-03-30T21:46:56.306Z,10.64
2023-03-30T21:49:25.327Z,10.63
2023-03-30T21:51:59.260Z,10.62
2023-03-30T21:54:28.852Z,10.61
2023-03-30T21:57:01.426Z,10.58
2023-03-30T21:59:27.972Z,10.57
2023-03-30T22:01:58.317Z,10.55
2023-03-30T22:04:24.732Z,10.53
2023-03-30T22:06:51.496Z,10.52
2023-03-30T22:09:20.448Z,10.48
2023-03-30T22:11:52.401Z,10.47
2023-03-30T22:14:23.051Z,10.44
2023-03-30T22:16:57.955Z,10.41
2023-03-30T22:19:28.029Z,10.40
2023-03-30T22:21:57.217Z,10.36
2023-03-30T22:24:31.246Z,10.34
2023-03-30T22:26:57.678Z,10.30
2023-03-30T22:29:24.073Z,10.30
2023-03-30T22:31:55.893Z,10.30
2023-03-30T22:34:22.620Z,10.31
2023-03-30T22:36:48.974Z,10.27
2023-03-30T22:39:19.582Z,10.26
2023-03-30T22:41:46.130Z,10.28
2023-03-30T22:44:12.687Z,10.25
2023-03-30T22:46:43.979Z,10.23
2023-03-30T22:49:10.392Z,10.23
2023-03-30T22:51:40.180Z,10.23
2023-03-30T22:54:12.045Z,10.23
2023-03-30T22:56:38.389Z,10.24
2023-03-30T22:59:08.973Z,10.25
2023-03-30T23:01:39.141Z,10.25
2023-03-30T23:04:08.963Z,10.23
2023-03-30T23:06:43.743Z,10.22
2023-03-30T23:09:24.257Z,10.20
2023-03-30T23:11:56.198Z,10.19
2023-03-30T23:14:26.795Z,10.19
2023-03-30T23:16:54.556Z,10.15
2023-03-30T23:19:27.477Z,10.10
2023-03-30T23:21:54.327Z,10.06
2023-03-30T23:24:34.224Z,10.02
2023-03-30T23:27:06.250Z,9.97
2023-03-30T23:29:35.989Z,9.93
2023-03-30T23:32:09.206Z,9.90
2023-03-30T23:34:38.310Z,9.85
2023-03-30T23:37:08.554Z,9.84
2023-03-30T23:39:37.883Z,9.81
2023-03-30T23:42:04.697Z,9.77
2023-03-30T23:44:31.429Z,9.73
2023-03-30T23:46:58.279Z,9.71
2023-03-30T23:49:24.747Z,9.68
2023-03-30T23:51:51.705Z,9.68
2023-03-30T23:54:26.245Z,9.69
2023-03-30T23:57:04.688Z,9.69
2023-03-30T23:59:31.382Z,9.70
